Destinations Scandinavian Mountains Airport

Scandinavian Mountains Airport (ESKS / SCR)

Flights to Scandinavian Mountains Airport

Flight number From ETE Dispatch
SPY-316 EHGG Groningen Airport Eelde 02:00

Flights from Scandinavian Mountains Airport

Flight number To ETE Dispatch
SPY-317 EHGG Groningen Airport Eelde
About

Scandinavian Mountains Airport facts

Scandinavian Mountains Airport is located in Sälen - Trysil at an elevation of 39.3 meters or 129 feet.

Currently, Speedy Airlines serves 2 flights to and from Scandinavian Mountains Airport.

Detailed airport info

Route map

Weather

Current weather

METAR

METAR

Metar data retrieved Sunday, 21 July 2024 at 19:25 UTC

ESKS 211850Z AUTO 14007KT 9999 BKN056/// OVC080/// 20/12 Q1011
Wind Temperature
7 kt 20c